sensor_id;sensor_type;location;lat;lon;timestamp;P1;durP1;ratioP1;P2;durP2;ratioP2
81656;SDS011;71067;51.482;-0.580;2023-07-09T00:01:14;6.28;;;3.90;;
81656;SDS011;71067;51.482;-0.580;2023-07-09T00:03:42;8.10;;;3.85;;
81656;SDS011;71067;51.482;-0.580;2023-07-09T00:06:08;7.22;;;3.72;;
81656;SDS011;71067;51.482;-0.580;2023-07-09T00:08:34;5.35;;;4.07;;
81656;SDS011;71067;51.482;-0.580;2023-07-09T00:10:59;5.68;;;4.03;;
81656;SDS011;71067;51.482;-0.580;2023-07-09T00:13:26;7.40;;;4.20;;
81656;SDS011;71067;51.482;-0.580;2023-07-09T00:15:54;6.15;;;4.15;;
81656;SDS011;71067;51.482;-0.580;2023-07-09T00:18:22;7.60;;;4.30;;
81656;SDS011;71067;51.482;-0.580;2023-07-09T00:20:48;6.60;;;4.25;;
81656;SDS011;71067;51.482;-0.580;2023-07-09T00:23:14;7.47;;;4.85;;
81656;SDS011;71067;51.482;-0.580;2023-07-09T00:25:40;9.80;;;5.28;;
81656;SDS011;71067;51.482;-0.580;2023-07-09T00:30:42;8.07;;;4.88;;
81656;SDS011;71067;51.482;-0.580;2023-07-09T00:33:12;8.93;;;4.88;;
81656;SDS011;71067;51.482;-0.580;2023-07-09T00:35:39;8.73;;;5.60;;
81656;SDS011;71067;51.482;-0.580;2023-07-09T00:38:08;9.63;;;5.45;;
81656;SDS011;71067;51.482;-0.580;2023-07-09T00:40:59;9.27;;;4.43;;
81656;SDS011;71067;51.482;-0.580;2023-07-09T00:43:32;7.60;;;4.85;;
81656;SDS011;71067;51.482;-0.580;2023-07-09T00:46:09;9.82;;;4.10;;
81656;SDS011;71067;51.482;-0.580;2023-07-09T00:48:42;7.35;;;4.15;;
81656;SDS011;71067;51.482;-0.580;2023-07-09T00:51:12;8.20;;;4.32;;
81656;SDS011;71067;51.482;-0.580;2023-07-09T00:53:39;6.25;;;3.28;;
81656;SDS011;71067;51.482;-0.580;2023-07-09T00:56:10;5.20;;;3.25;;
81656;SDS011;71067;51.482;-0.580;2023-07-09T00:58:39;6.63;;;3.30;;
81656;SDS011;71067;51.482;-0.580;2023-07-09T01:01:10;6.15;;;3.63;;
81656;SDS011;71067;51.482;-0.580;2023-07-09T01:03:42;6.70;;;3.35;;
81656;SDS011;71067;51.482;-0.580;2023-07-09T01:06:10;6.90;;;3.10;;
81656;SDS011;71067;51.482;-0.580;2023-07-09T01:08:38;4.28;;;2.83;;
81656;SDS011;71067;51.482;-0.580;2023-07-09T01:11:14;4.55;;;2.75;;
81656;SDS011;71067;51.482;-0.580;2023-07-09T01:13:46;4.85;;;2.65;;
81656;SDS011;71067;51.482;-0.580;2023-07-09T01:16:22;5.90;;;2.67;;
81656;SDS011;71067;51.482;-0.580;2023-07-09T01:18:50;5.40;;;3.00;;
81656;SDS011;71067;51.482;-0.580;2023-07-09T01:21:16;5.28;;;2.53;;
81656;SDS011;71067;51.482;-0.580;2023-07-09T01:23:42;5.68;;;2.75;;
81656;SDS011;71067;51.482;-0.580;2023-07-09T01:26:09;5.00;;;2.38;;
81656;SDS011;71067;51.482;-0.580;2023-07-09T01:28:39;5.43;;;2.75;;
81656;SDS011;71067;51.482;-0.580;2023-07-09T01:31:12;7.53;;;2.90;;
81656;SDS011;71067;51.482;-0.580;2023-07-09T01:33:40;6.13;;;2.92;;
81656;SDS011;71067;51.482;-0.580;2023-07-09T01:36:10;5.10;;;2.35;;
81656;SDS011;71067;51.482;-0.580;2023-07-09T01:38:39;5.32;;;2.60;;
81656;SDS011;71067;51.482;-0.580;2023-07-09T01:41:05;5.82;;;2.70;;
81656;SDS011;71067;51.482;-0.580;2023-07-09T01:43:32;5.90;;;2.58;;
81656;SDS011;71067;51.482;-0.580;2023-07-09T01:45:57;6.57;;;2.50;;
81656;SDS011;71067;51.482;-0.580;2023-07-09T01:48:24;4.72;;;2.70;;
81656;SDS011;71067;51.482;-0.580;2023-07-09T01:50:50;5.93;;;2.72;;
81656;SDS011;71067;51.482;-0.580;2023-07-09T01:53:17;7.28;;;2.30;;
81656;SDS011;71067;51.482;-0.580;2023-07-09T01:55:48;5.60;;;2.70;;
81656;SDS011;71067;51.482;-0.580;2023-07-09T01:58:17;6.25;;;2.60;;
81656;SDS011;71067;51.482;-0.580;2023-07-09T02:00:42;4.82;;;2.30;;
81656;SDS011;71067;51.482;-0.580;2023-07-09T02:03:10;4.05;;;2.22;;
81656;SDS011;71067;51.482;-0.580;2023-07-09T02:05:35;5.68;;;2.50;;
81656;SDS011;71067;51.482;-0.580;2023-07-09T02:08:01;6.03;;;2.00;;
81656;SDS011;71067;51.482;-0.580;2023-07-09T02:10:27;5.93;;;2.90;;
81656;SDS011;71067;51.482;-0.580;2023-07-09T02:12:52;5.30;;;3.00;;
81656;SDS011;71067;51.482;-0.580;2023-07-09T02:15:18;5.55;;;2.40;;
81656;SDS011;71067;51.482;-0.580;2023-07-09T02:17:43;9.77;;;2.80;;
81656;SDS011;71067;51.482;-0.580;2023-07-09T02:20:09;7.18;;;2.78;;
81656;SDS011;71067;51.482;-0.580;2023-07-09T02:22:36;5.43;;;2.70;;
81656;SDS011;71067;51.482;-0.580;2023-07-09T02:25:02;6.55;;;2.58;;
81656;SDS011;71067;51.482;-0.580;2023-07-09T02:27:29;4.90;;;2.28;;
81656;SDS011;71067;51.482;-0.580;2023-07-09T02:29:54;6.43;;;2.50;;
81656;SDS011;71067;51.482;-0.580;2023-07-09T02:32:20;5.63;;;2.50;;
81656;SDS011;71067;51.482;-0.580;2023-07-09T02:34:48;5.93;;;2.42;;
81656;SDS011;71067;51.482;-0.580;2023-07-09T02:37:14;5.80;;;2.75;;
81656;SDS011;71067;51.482;-0.580;2023-07-09T02:39:43;5.97;;;2.70;;
81656;SDS011;71067;51.482;-0.580;2023-07-09T02:42:12;4.13;;;2.00;;
81656;SDS011;71067;51.482;-0.580;2023-07-09T02:44:39;4.88;;;2.22;;
81656;SDS011;71067;51.482;-0.580;2023-07-09T02:47:08;5.88;;;2.33;;
81656;SDS011;71067;51.482;-0.580;2023-07-09T02:49:35;5.18;;;2.53;;
81656;SDS011;71067;51.482;-0.580;2023-07-09T02:52:01;4.43;;;2.47;;
81656;SDS011;71067;51.482;-0.580;2023-07-09T02:54:26;5.20;;;2.60;;
81656;SDS011;71067;51.482;-0.580;2023-07-09T02:56:52;7.90;;;2.80;;
81656;SDS011;71067;51.482;-0.580;2023-07-09T02:59:17;6.32;;;2.50;;
81656;SDS011;71067;51.482;-0.580;2023-07-09T03:01:42;5.85;;;2.67;;
81656;SDS011;71067;51.482;-0.580;2023-07-09T03:04:08;4.93;;;2.50;;
81656;SDS011;71067;51.482;-0.580;2023-07-09T03:06:34;6.57;;;2.90;;
81656;SDS011;71067;51.482;-0.580;2023-07-09T03:09:01;5.28;;;2.28;;
81656;SDS011;71067;51.482;-0.580;2023-07-09T03:11:31;6.88;;;3.05;;
81656;SDS011;71067;51.482;-0.580;2023-07-09T03:13:57;7.30;;;3.45;;
81656;SDS011;71067;51.482;-0.580;2023-07-09T03:16:23;5.70;;;3.20;;
81656;SDS011;71067;51.482;-0.580;2023-07-09T03:18:48;6.68;;;2.55;;
81656;SDS011;71067;51.482;-0.580;2023-07-09T03:21:14;7.93;;;3.60;;
81656;SDS011;71067;51.482;-0.580;2023-07-09T03:23:39;8.15;;;3.20;;
81656;SDS011;71067;51.482;-0.580;2023-07-09T03:26:05;8.25;;;3.88;;
81656;SDS011;71067;51.482;-0.580;2023-07-09T03:28:31;7.33;;;3.20;;
81656;SDS011;71067;51.482;-0.580;2023-07-09T03:30:57;6.18;;;3.00;;
81656;SDS011;71067;51.482;-0.580;2023-07-09T03:33:23;7.75;;;3.42;;
81656;SDS011;71067;51.482;-0.580;2023-07-09T03:35:49;6.47;;;3.20;;
81656;SDS011;71067;51.482;-0.580;2023-07-09T03:38:15;8.60;;;3.45;;
81656;SDS011;71067;51.482;-0.580;2023-07-09T03:40:40;5.57;;;3.10;;
81656;SDS011;71067;51.482;-0.580;2023-07-09T03:43:05;7.03;;;3.00;;
81656;SDS011;71067;51.482;-0.580;2023-07-09T03:45:33;6.35;;;3.20;;
81656;SDS011;71067;51.482;-0.580;2023-07-09T03:47:59;5.93;;;2.95;;
81656;SDS011;71067;51.482;-0.580;2023-07-09T03:50:25;7.65;;;2.90;;
81656;SDS011;71067;51.482;-0.580;2023-07-09T03:52:50;8.63;;;3.42;;
81656;SDS011;71067;51.482;-0.580;2023-07-09T03:55:16;5.45;;;2.85;;
81656;SDS011;71067;51.482;-0.580;2023-07-09T03:57:41;8.57;;;3.03;;
81656;SDS011;71067;51.482;-0.580;2023-07-09T04:00:06;6.47;;;3.07;;
81656;SDS011;71067;51.482;-0.580;2023-07-09T04:02:39;7.97;;;2.85;;
81656;SDS011;71067;51.482;-0.580;2023-07-09T04:05:05;6.38;;;2.70;;
81656;SDS011;71067;51.482;-0.580;2023-07-09T04:07:33;6.43;;;3.28;;
81656;SDS011;71067;51.482;-0.580;2023-07-09T04:09:59;7.82;;;3.03;;
81656;SDS011;71067;51.482;-0.580;2023-07-09T04:12:24;7.95;;;3.20;;
81656;SDS011;71067;51.482;-0.580;2023-07-09T04:14:49;10.52;;;3.00;;
81656;SDS011;71067;51.482;-0.580;2023-07-09T04:17:15;6.07;;;2.60;;
81656;SDS011;71067;51.482;-0.580;2023-07-09T04:19:40;6.83;;;3.10;;
81656;SDS011;71067;51.482;-0.580;2023-07-09T04:22:05;7.35;;;2.75;;
81656;SDS011;71067;51.482;-0.580;2023-07-09T04:24:31;6.17;;;2.90;;
81656;SDS011;71067;51.482;-0.580;2023-07-09T04:26:58;7.50;;;2.80;;
81656;SDS011;71067;51.482;-0.580;2023-07-09T04:29:28;7.57;;;3.03;;
81656;SDS011;71067;51.482;-0.580;2023-07-09T04:32:01;6.72;;;2.75;;
81656;SDS011;71067;51.482;-0.580;2023-07-09T04:34:27;8.00;;;2.90;;
81656;SDS011;71067;51.482;-0.580;2023-07-09T04:36:52;7.07;;;2.78;;
81656;SDS011;71067;51.482;-0.580;2023-07-09T04:39:18;8.63;;;3.15;;
81656;SDS011;71067;51.482;-0.580;2023-07-09T04:41:43;6.10;;;2.88;;
81656;SDS011;71067;51.482;-0.580;2023-07-09T04:44:08;7.82;;;3.25;;
81656;SDS011;71067;51.482;-0.580;2023-07-09T04:46:34;6.87;;;3.23;;
81656;SDS011;71067;51.482;-0.580;2023-07-09T04:48:59;8.05;;;3.20;;
81656;SDS011;71067;51.482;-0.580;2023-07-09T04:51:25;6.90;;;2.97;;
81656;SDS011;71067;51.482;-0.580;2023-07-09T04:53:50;7.40;;;3.10;;
81656;SDS011;71067;51.482;-0.580;2023-07-09T04:56:16;7.03;;;2.75;;
81656;SDS011;71067;51.482;-0.580;2023-07-09T04:58:42;6.32;;;3.05;;
81656;SDS011;71067;51.482;-0.580;2023-07-09T05:01:07;7.53;;;3.20;;
81656;SDS011;71067;51.482;-0.580;2023-07-09T05:03:33;6.97;;;2.80;;
81656;SDS011;71067;51.482;-0.580;2023-07-09T05:05:58;9.45;;;3.10;;
81656;SDS011;71067;51.482;-0.580;2023-07-09T05:08:23;6.35;;;2.78;;
81656;SDS011;71067;51.482;-0.580;2023-07-09T05:10:50;6.35;;;3.05;;
81656;SDS011;71067;51.482;-0.580;2023-07-09T05:13:17;8.52;;;2.95;;
81656;SDS011;71067;51.482;-0.580;2023-07-09T05:15:43;6.40;;;3.10;;
81656;SDS011;71067;51.482;-0.580;2023-07-09T05:18:11;8.23;;;3.83;;
81656;SDS011;71067;51.482;-0.580;2023-07-09T05:20:37;6.25;;;3.00;;
81656;SDS011;71067;51.482;-0.580;2023-07-09T05:23:03;7.18;;;3.13;;
81656;SDS011;71067;51.482;-0.580;2023-07-09T05:25:28;7.45;;;2.90;;
81656;SDS011;71067;51.482;-0.580;2023-07-09T05:27:53;7.78;;;3.10;;
81656;SDS011;71067;51.482;-0.580;2023-07-09T05:30:19;6.97;;;3.33;;
81656;SDS011;71067;51.482;-0.580;2023-07-09T05:32:44;8.82;;;3.03;;
81656;SDS011;71067;51.482;-0.580;2023-07-09T05:35:10;8.23;;;3.50;;
81656;SDS011;71067;51.482;-0.580;2023-07-09T05:37:36;7.00;;;2.67;;
81656;SDS011;71067;51.482;-0.580;2023-07-09T05:40:01;9.38;;;3.20;;
81656;SDS011;71067;51.482;-0.580;2023-07-09T05:42:29;8.00;;;3.45;;
81656;SDS011;71067;51.482;-0.580;2023-07-09T05:44:54;8.32;;;3.10;;
81656;SDS011;71067;51.482;-0.580;2023-07-09T05:47:20;10.95;;;3.20;;
81656;SDS011;71067;51.482;-0.580;2023-07-09T05:49:45;8.95;;;3.17;;
81656;SDS011;71067;51.482;-0.580;2023-07-09T05:52:14;6.97;;;2.83;;
81656;SDS011;71067;51.482;-0.580;2023-07-09T05:54:39;9.73;;;3.17;;
81656;SDS011;71067;51.482;-0.580;2023-07-09T05:57:05;11.83;;;3.17;;
81656;SDS011;71067;51.482;-0.580;2023-07-09T05:59:30;7.93;;;2.88;;
81656;SDS011;71067;51.482;-0.580;2023-07-09T06:01:56;13.30;;;3.13;;
81656;SDS011;71067;51.482;-0.580;2023-07-09T06:04:21;7.32;;;2.92;;
81656;SDS011;71067;51.482;-0.580;2023-07-09T06:06:46;9.07;;;3.10;;
81656;SDS011;71067;51.482;-0.580;2023-07-09T06:09:12;6.43;;;2.83;;
81656;SDS011;71067;51.482;-0.580;2023-07-09T06:11:37;8.73;;;2.80;;
81656;SDS011;71067;51.482;-0.580;2023-07-09T06:14:02;11.30;;;3.23;;
81656;SDS011;71067;51.482;-0.580;2023-07-09T06:16:28;9.17;;;3.27;;
81656;SDS011;71067;51.482;-0.580;2023-07-09T06:18:54;8.20;;;2.53;;
81656;SDS011;71067;51.482;-0.580;2023-07-09T06:21:19;7.47;;;3.07;;
81656;SDS011;71067;51.482;-0.580;2023-07-09T06:23:45;7.27;;;2.80;;
81656;SDS011;71067;51.482;-0.580;2023-07-09T06:26:11;9.90;;;2.92;;
81656;SDS011;71067;51.482;-0.580;2023-07-09T06:28:37;8.57;;;2.90;;
81656;SDS011;71067;51.482;-0.580;2023-07-09T06:31:02;10.95;;;2.90;;
81656;SDS011;71067;51.482;-0.580;2023-07-09T06:33:27;6.05;;;2.70;;
81656;SDS011;71067;51.482;-0.580;2023-07-09T06:35:55;12.95;;;3.40;;
81656;SDS011;71067;51.482;-0.580;2023-07-09T06:40:49;12.93;;;3.38;;
81656;SDS011;71067;51.482;-0.580;2023-07-09T06:43:15;8.73;;;3.40;;
81656;SDS011;71067;51.482;-0.580;2023-07-09T06:45:54;6.70;;;3.05;;
81656;SDS011;71067;51.482;-0.580;2023-07-09T06:48:21;8.38;;;3.45;;
81656;SDS011;71067;51.482;-0.580;2023-07-09T06:50:48;8.25;;;3.00;;
81656;SDS011;71067;51.482;-0.580;2023-07-09T06:53:13;6.50;;;2.63;;
81656;SDS011;71067;51.482;-0.580;2023-07-09T06:55:39;13.18;;;3.47;;
81656;SDS011;71067;51.482;-0.580;2023-07-09T06:58:04;13.85;;;3.17;;
81656;SDS011;71067;51.482;-0.580;2023-07-09T07:00:30;8.52;;;2.70;;
81656;SDS011;71067;51.482;-0.580;2023-07-09T07:02:55;9.30;;;2.97;;
81656;SDS011;71067;51.482;-0.580;2023-07-09T07:05:20;12.50;;;3.08;;
81656;SDS011;71067;51.482;-0.580;2023-07-09T07:07:46;9.57;;;2.80;;
81656;SDS011;71067;51.482;-0.580;2023-07-09T07:10:11;10.55;;;2.72;;
81656;SDS011;71067;51.482;-0.580;2023-07-09T07:12:41;7.70;;;2.80;;
81656;SDS011;71067;51.482;-0.580;2023-07-09T07:15:08;12.00;;;3.28;;
81656;SDS011;71067;51.482;-0.580;2023-07-09T07:17:34;6.63;;;2.40;;
81656;SDS011;71067;51.482;-0.580;2023-07-09T07:19:59;7.77;;;2.70;;
81656;SDS011;71067;51.482;-0.580;2023-07-09T07:22:25;9.50;;;2.97;;
81656;SDS011;71067;51.482;-0.580;2023-07-09T07:24:51;9.50;;;2.47;;
81656;SDS011;71067;51.482;-0.580;2023-07-09T07:27:16;10.50;;;2.97;;
81656;SDS011;71067;51.482;-0.580;2023-07-09T07:29:42;7.50;;;2.80;;
81656;SDS011;71067;51.482;-0.580;2023-07-09T07:32:07;8.13;;;2.53;;
81656;SDS011;71067;51.482;-0.580;2023-07-09T07:34:33;8.45;;;2.97;;
81656;SDS011;71067;51.482;-0.580;2023-07-09T07:36:59;5.82;;;2.60;;
81656;SDS011;71067;51.482;-0.580;2023-07-09T07:39:24;6.70;;;2.63;;
81656;SDS011;71067;51.482;-0.580;2023-07-09T07:41:49;7.17;;;2.60;;
81656;SDS011;71067;51.482;-0.580;2023-07-09T07:44:16;8.73;;;2.90;;
81656;SDS011;71067;51.482;-0.580;2023-07-09T07:46:41;6.28;;;2.28;;
81656;SDS011;71067;51.482;-0.580;2023-07-09T07:49:07;13.50;;;3.25;;
81656;SDS011;71067;51.482;-0.580;2023-07-09T07:51:32;7.82;;;2.75;;
81656;SDS011;71067;51.482;-0.580;2023-07-09T07:53:59;6.78;;;2.65;;
81656;SDS011;71067;51.482;-0.580;2023-07-09T07:56:24;7.93;;;2.47;;
81656;SDS011;71067;51.482;-0.580;2023-07-09T07:58:50;8.80;;;3.08;;
81656;SDS011;71067;51.482;-0.580;2023-07-09T08:01:16;8.18;;;2.60;;
81656;SDS011;71067;51.482;-0.580;2023-07-09T08:03:41;9.20;;;2.47;;
81656;SDS011;71067;51.482;-0.580;2023-07-09T08:06:06;10.43;;;2.60;;
81656;SDS011;71067;51.482;-0.580;2023-07-09T08:08:32;10.57;;;2.50;;
81656;SDS011;71067;51.482;-0.580;2023-07-09T08:11:04;11.07;;;2.50;;
81656;SDS011;71067;51.482;-0.580;2023-07-09T08:13:33;12.18;;;3.58;;
81656;SDS011;71067;51.482;-0.580;2023-07-09T08:15:59;8.75;;;2.50;;
81656;SDS011;71067;51.482;-0.580;2023-07-09T08:18:24;13.20;;;3.07;;
81656;SDS011;71067;51.482;-0.580;2023-07-09T08:20:49;7.63;;;2.83;;
81656;SDS011;71067;51.482;-0.580;2023-07-09T08:23:15;7.77;;;2.70;;
81656;SDS011;71067;51.482;-0.580;2023-07-09T08:25:40;8.63;;;2.88;;
81656;SDS011;71067;51.482;-0.580;2023-07-09T08:28:05;9.60;;;2.70;;
81656;SDS011;71067;51.482;-0.580;2023-07-09T08:30:31;8.93;;;2.38;;
81656;SDS011;71067;51.482;-0.580;2023-07-09T08:32:56;10.73;;;2.90;;
81656;SDS011;71067;51.482;-0.580;2023-07-09T08:35:22;7.13;;;2.25;;
81656;SDS011;71067;51.482;-0.580;2023-07-09T08:37:47;8.50;;;2.17;;
81656;SDS011;71067;51.482;-0.580;2023-07-09T08:40:13;6.03;;;2.23;;
81656;SDS011;71067;51.482;-0.580;2023-07-09T08:42:42;9.45;;;2.35;;
81656;SDS011;71067;51.482;-0.580;2023-07-09T08:50:52;9.80;;;2.67;;
81656;SDS011;71067;51.482;-0.580;2023-07-09T08:53:25;7.38;;;2.20;;
81656;SDS011;71067;51.482;-0.580;2023-07-09T08:56:07;9.45;;;2.85;;
81656;SDS011;71067;51.482;-0.580;2023-07-09T08:58:34;9.05;;;2.67;;
81656;SDS011;71067;51.482;-0.580;2023-07-09T09:01:02;11.98;;;3.08;;
81656;SDS011;71067;51.482;-0.580;2023-07-09T09:03:34;8.23;;;2.50;;
81656;SDS011;71067;51.482;-0.580;2023-07-09T09:06:09;13.18;;;2.90;;
81656;SDS011;71067;51.482;-0.580;2023-07-09T09:08:58;9.07;;;2.10;;
81656;SDS011;71067;51.482;-0.580;2023-07-09T09:14:18;9.55;;;2.42;;
81656;SDS011;71067;51.482;-0.580;2023-07-09T09:16:50;12.00;;;3.08;;
81656;SDS011;71067;51.482;-0.580;2023-07-09T09:19:22;12.45;;;2.33;;
81656;SDS011;71067;51.482;-0.580;2023-07-09T09:21:54;8.68;;;2.70;;
81656;SDS011;71067;51.482;-0.580;2023-07-09T09:24:26;8.70;;;2.35;;
81656;SDS011;71067;51.482;-0.580;2023-07-09T09:26:55;8.60;;;2.25;;
81656;SDS011;71067;51.482;-0.580;2023-07-09T09:29:23;9.02;;;2.40;;
81656;SDS011;71067;51.482;-0.580;2023-07-09T09:31:50;6.68;;;1.90;;
81656;SDS011;71067;51.482;-0.580;2023-07-09T09:34:21;6.30;;;1.77;;
81656;SDS011;71067;51.482;-0.580;2023-07-09T09:36:48;4.55;;;1.75;;
81656;SDS011;71067;51.482;-0.580;2023-07-09T09:39:13;6.00;;;1.83;;
81656;SDS011;71067;51.482;-0.580;2023-07-09T09:41:39;6.97;;;2.20;;
81656;SDS011;71067;51.482;-0.580;2023-07-09T09:44:05;5.18;;;1.52;;
81656;SDS011;71067;51.482;-0.580;2023-07-09T09:46:31;5.93;;;1.55;;
81656;SDS011;71067;51.482;-0.580;2023-07-09T09:49:01;5.25;;;1.67;;
81656;SDS011;71067;51.482;-0.580;2023-07-09T09:51:28;7.88;;;2.00;;
81656;SDS011;71067;51.482;-0.580;2023-07-09T09:54:00;7.13;;;1.90;;
81656;SDS011;71067;51.482;-0.580;2023-07-09T09:56:28;7.57;;;2.10;;
81656;SDS011;71067;51.482;-0.580;2023-07-09T09:59:01;8.07;;;2.15;;
81656;SDS011;71067;51.482;-0.580;2023-07-09T10:01:32;4.20;;;1.42;;
81656;SDS011;71067;51.482;-0.580;2023-07-09T10:04:03;4.55;;;1.70;;
81656;SDS011;71067;51.482;-0.580;2023-07-09T10:06:33;5.80;;;1.40;;
81656;SDS011;71067;51.482;-0.580;2023-07-09T10:12:00;5.45;;;1.63;;
81656;SDS011;71067;51.482;-0.580;2023-07-09T10:20:59;4.95;;;1.48;;
81656;SDS011;71067;51.482;-0.580;2023-07-09T10:26:32;6.32;;;1.30;;
81656;SDS011;71067;51.482;-0.580;2023-07-09T10:31:50;7.00;;;1.50;;
81656;SDS011;71067;51.482;-0.580;2023-07-09T10:39:57;5.05;;;1.40;;
81656;SDS011;71067;51.482;-0.580;2023-07-09T10:42:30;6.05;;;1.77;;
81656;SDS011;71067;51.482;-0.580;2023-07-09T10:45:20;4.95;;;1.33;;
81656;SDS011;71067;51.482;-0.580;2023-07-09T10:47:53;4.78;;;1.23;;
81656;SDS011;71067;51.482;-0.580;2023-07-09T10:50:31;5.93;;;1.52;;
81656;SDS011;71067;51.482;-0.580;2023-07-09T10:53:02;4.72;;;1.20;;
81656;SDS011;71067;51.482;-0.580;2023-07-09T10:55:43;8.68;;;1.70;;
81656;SDS011;71067;51.482;-0.580;2023-07-09T11:01:11;5.28;;;1.30;;
81656;SDS011;71067;51.482;-0.580;2023-07-09T11:03:47;5.47;;;1.63;;
81656;SDS011;71067;51.482;-0.580;2023-07-09T11:09:30;7.75;;;1.70;;
81656;SDS011;71067;51.482;-0.580;2023-07-09T11:11:59;4.40;;;1.10;;
81656;SDS011;71067;51.482;-0.580;2023-07-09T11:14:43;4.15;;;1.40;;
81656;SDS011;71067;51.482;-0.580;2023-07-09T11:17:28;3.78;;;1.30;;
81656;SDS011;71067;51.482;-0.580;2023-07-09T11:19:55;6.88;;;1.23;;
81656;SDS011;71067;51.482;-0.580;2023-07-09T11:22:37;7.00;;;1.40;;
81656;SDS011;71067;51.482;-0.580;2023-07-09T11:25:07;3.95;;;1.30;;
81656;SDS011;71067;51.482;-0.580;2023-07-09T11:27:48;7.05;;;1.23;;
81656;SDS011;71067;51.482;-0.580;2023-07-09T11:30:20;5.25;;;1.63;;
81656;SDS011;71067;51.482;-0.580;2023-07-09T11:32:47;6.82;;;1.30;;
81656;SDS011;71067;51.482;-0.580;2023-07-09T11:35:23;5.25;;;1.40;;
81656;SDS011;71067;51.482;-0.580;2023-07-09T11:37:50;5.18;;;1.23;;
81656;SDS011;71067;51.482;-0.580;2023-07-09T11:40:18;5.40;;;1.60;;
81656;SDS011;71067;51.482;-0.580;2023-07-09T11:45:31;4.22;;;1.48;;
81656;SDS011;71067;51.482;-0.580;2023-07-09T11:48:04;5.88;;;1.42;;
81656;SDS011;71067;51.482;-0.580;2023-07-09T11:50:48;6.25;;;1.67;;
81656;SDS011;71067;51.482;-0.580;2023-07-09T11:56:03;5.30;;;1.63;;
81656;SDS011;71067;51.482;-0.580;2023-07-09T11:58:29;5.47;;;1.90;;
81656;SDS011;71067;51.482;-0.580;2023-07-09T12:00:55;4.28;;;1.10;;
81656;SDS011;71067;51.482;-0.580;2023-07-09T12:03:29;6.72;;;1.60;;
81656;SDS011;71067;51.482;-0.580;2023-07-09T12:06:01;6.53;;;1.55;;
81656;SDS011;71067;51.482;-0.580;2023-07-09T12:08:33;5.47;;;1.23;;
81656;SDS011;71067;51.482;-0.580;2023-07-09T12:11:01;6.97;;;1.80;;
81656;SDS011;71067;51.482;-0.580;2023-07-09T12:13:26;7.28;;;1.40;;
81656;SDS011;71067;51.482;-0.580;2023-07-09T12:15:52;4.47;;;1.63;;
81656;SDS011;71067;51.482;-0.580;2023-07-09T12:18:17;7.40;;;1.85;;
81656;SDS011;71067;51.482;-0.580;2023-07-09T12:20:45;6.57;;;1.85;;
81656;SDS011;71067;51.482;-0.580;2023-07-09T12:25:58;5.43;;;1.83;;
81656;SDS011;71067;51.482;-0.580;2023-07-09T12:30:52;7.88;;;1.80;;
81656;SDS011;71067;51.482;-0.580;2023-07-09T12:33:21;4.63;;;1.40;;
81656;SDS011;71067;51.482;-0.580;2023-07-09T12:35:49;6.45;;;1.52;;
81656;SDS011;71067;51.482;-0.580;2023-07-09T12:38:22;6.45;;;1.48;;
81656;SDS011;71067;51.482;-0.580;2023-07-09T12:40:50;5.68;;;1.40;;
81656;SDS011;71067;51.482;-0.580;2023-07-09T12:43:18;7.05;;;2.00;;
81656;SDS011;71067;51.482;-0.580;2023-07-09T12:45:48;7.20;;;1.65;;
81656;SDS011;71067;51.482;-0.580;2023-07-09T12:48:13;6.18;;;1.65;;
81656;SDS011;71067;51.482;-0.580;2023-07-09T12:50:39;6.47;;;1.73;;
81656;SDS011;71067;51.482;-0.580;2023-07-09T12:53:14;6.35;;;1.60;;
81656;SDS011;71067;51.482;-0.580;2023-07-09T12:55:42;7.60;;;2.00;;
81656;SDS011;71067;51.482;-0.580;2023-07-09T12:58:11;8.43;;;1.83;;
81656;SDS011;71067;51.482;-0.580;2023-07-09T13:00:43;5.63;;;1.50;;
81656;SDS011;71067;51.482;-0.580;2023-07-09T13:03:16;6.40;;;1.95;;
81656;SDS011;71067;51.482;-0.580;2023-07-09T13:05:55;8.63;;;1.60;;
81656;SDS011;71067;51.482;-0.580;2023-07-09T13:08:24;7.07;;;1.83;;
81656;SDS011;71067;51.482;-0.580;2023-07-09T13:10:50;8.60;;;1.77;;
81656;SDS011;71067;51.482;-0.580;2023-07-09T13:13:18;6.97;;;1.60;;
81656;SDS011;71067;51.482;-0.580;2023-07-09T13:15:47;7.28;;;1.60;;
81656;SDS011;71067;51.482;-0.580;2023-07-09T13:18:16;6.00;;;1.50;;
81656;SDS011;71067;51.482;-0.580;2023-07-09T13:20:43;10.43;;;1.80;;
81656;SDS011;71067;51.482;-0.580;2023-07-09T13:23:14;7.50;;;1.30;;
81656;SDS011;71067;51.482;-0.580;2023-07-09T13:25:41;4.57;;;1.63;;
81656;SDS011;71067;51.482;-0.580;2023-07-09T13:28:12;6.00;;;1.63;;
81656;SDS011;71067;51.482;-0.580;2023-07-09T13:30:41;5.85;;;1.75;;
81656;SDS011;71067;51.482;-0.580;2023-07-09T13:33:09;8.33;;;1.60;;
81656;SDS011;71067;51.482;-0.580;2023-07-09T13:35:35;8.73;;;1.80;;
81656;SDS011;71067;51.482;-0.580;2023-07-09T13:38:01;6.32;;;1.70;;
81656;SDS011;71067;51.482;-0.580;2023-07-09T13:40:29;7.32;;;1.60;;
81656;SDS011;71067;51.482;-0.580;2023-07-09T13:42:55;4.13;;;1.20;;
81656;SDS011;71067;51.482;-0.580;2023-07-09T13:45:21;7.53;;;1.75;;
81656;SDS011;71067;51.482;-0.580;2023-07-09T13:47:49;9.77;;;1.88;;
81656;SDS011;71067;51.482;-0.580;2023-07-09T13:50:16;7.00;;;1.75;;
81656;SDS011;71067;51.482;-0.580;2023-07-09T13:52:43;5.93;;;1.65;;
81656;SDS011;71067;51.482;-0.580;2023-07-09T13:55:14;6.95;;;1.77;;
81656;SDS011;71067;51.482;-0.580;2023-07-09T13:57:42;6.72;;;1.70;;
81656;SDS011;71067;51.482;-0.580;2023-07-09T14:00:09;6.65;;;1.60;;
81656;SDS011;71067;51.482;-0.580;2023-07-09T14:02:35;7.90;;;1.60;;
81656;SDS011;71067;51.482;-0.580;2023-07-09T14:05:01;7.28;;;1.88;;
81656;SDS011;71067;51.482;-0.580;2023-07-09T14:07:29;7.97;;;1.90;;
81656;SDS011;71067;51.482;-0.580;2023-07-09T14:09:57;5.97;;;1.70;;
81656;SDS011;71067;51.482;-0.580;2023-07-09T14:12:23;5.80;;;1.83;;
81656;SDS011;71067;51.482;-0.580;2023-07-09T14:14:53;5.88;;;1.80;;
81656;SDS011;71067;51.482;-0.580;2023-07-09T14:17:21;4.25;;;1.67;;
81656;SDS011;71067;51.482;-0.580;2023-07-09T14:19:48;6.47;;;1.40;;
81656;SDS011;71067;51.482;-0.580;2023-07-09T14:24:48;6.10;;;1.60;;
81656;SDS011;71067;51.482;-0.580;2023-07-09T14:27:13;7.28;;;1.75;;
81656;SDS011;71067;51.482;-0.580;2023-07-09T14:29:38;4.83;;;1.80;;
81656;SDS011;71067;51.482;-0.580;2023-07-09T14:32:04;7.50;;;1.50;;
81656;SDS011;71067;51.482;-0.580;2023-07-09T14:34:32;8.43;;;1.70;;
81656;SDS011;71067;51.482;-0.580;2023-07-09T14:36:59;4.97;;;1.75;;
81656;SDS011;71067;51.482;-0.580;2023-07-09T14:39:26;8.88;;;1.95;;
81656;SDS011;71067;51.482;-0.580;2023-07-09T14:41:52;6.97;;;1.70;;
81656;SDS011;71067;51.482;-0.580;2023-07-09T14:46:51;5.57;;;1.80;;
81656;SDS011;71067;51.482;-0.580;2023-07-09T14:49:18;5.75;;;1.60;;
81656;SDS011;71067;51.482;-0.580;2023-07-09T14:51:44;6.05;;;1.65;;
81656;SDS011;71067;51.482;-0.580;2023-07-09T14:54:29;6.97;;;1.85;;
81656;SDS011;71067;51.482;-0.580;2023-07-09T14:56:56;4.65;;;1.30;;
81656;SDS011;71067;51.482;-0.580;2023-07-09T14:59:23;6.50;;;1.60;;
81656;SDS011;71067;51.482;-0.580;2023-07-09T15:01:49;7.75;;;1.80;;
81656;SDS011;71067;51.482;-0.580;2023-07-09T15:06:49;6.10;;;1.85;;
81656;SDS011;71067;51.482;-0.580;2023-07-09T15:09:16;5.50;;;1.63;;
81656;SDS011;71067;51.482;-0.580;2023-07-09T15:11:42;3.38;;;1.17;;
81656;SDS011;71067;51.482;-0.580;2023-07-09T15:14:10;6.65;;;1.40;;
81656;SDS011;71067;51.482;-0.580;2023-07-09T15:16:36;7.50;;;1.45;;
81656;SDS011;71067;51.482;-0.580;2023-07-09T15:19:03;5.82;;;1.75;;
81656;SDS011;71067;51.482;-0.580;2023-07-09T15:21:34;6.57;;;1.88;;
81656;SDS011;71067;51.482;-0.580;2023-07-09T15:23:59;4.80;;;1.60;;
81656;SDS011;71067;51.482;-0.580;2023-07-09T15:26:24;7.20;;;1.77;;
81656;SDS011;71067;51.482;-0.580;2023-07-09T15:28:50;5.90;;;1.40;;
81656;SDS011;71067;51.482;-0.580;2023-07-09T15:31:15;4.27;;;1.57;;
81656;SDS011;71067;51.482;-0.580;2023-07-09T15:33:40;4.17;;;1.60;;
81656;SDS011;71067;51.482;-0.580;2023-07-09T15:36:14;6.70;;;1.63;;